sensor_id;sensor_type;location;lat;lon;timestamp;P1;durP1;ratioP1;P2;durP2;ratioP2
63016;SDS011;50274;45.640;11.756;2023-02-11T00:02:02;53.25;;;25.58;;
63016;SDS011;50274;45.640;11.756;2023-02-11T00:04:29;44.38;;;24.20;;
63016;SDS011;50274;45.640;11.756;2023-02-11T00:06:55;46.70;;;23.73;;
63016;SDS011;50274;45.640;11.756;2023-02-11T00:09:21;44.70;;;22.50;;
63016;SDS011;50274;45.640;11.756;2023-02-11T00:11:47;42.85;;;22.23;;
63016;SDS011;50274;45.640;11.756;2023-02-11T00:14:13;49.33;;;24.63;;
63016;SDS011;50274;45.640;11.756;2023-02-11T00:16:39;48.17;;;24.77;;
63016;SDS011;50274;45.640;11.756;2023-02-11T00:19:05;46.63;;;24.67;;
63016;SDS011;50274;45.640;11.756;2023-02-11T00:21:31;46.47;;;24.75;;
63016;SDS011;50274;45.640;11.756;2023-02-11T00:23:58;48.20;;;24.80;;
63016;SDS011;50274;45.640;11.756;2023-02-11T00:26:29;51.28;;;25.60;;
63016;SDS011;50274;45.640;11.756;2023-02-11T00:28:56;40.55;;;22.10;;
63016;SDS011;50274;45.640;11.756;2023-02-11T00:31:24;43.90;;;23.85;;
63016;SDS011;50274;45.640;11.756;2023-02-11T00:33:50;44.33;;;23.02;;
63016;SDS011;50274;45.640;11.756;2023-02-11T00:36:17;42.47;;;20.93;;
63016;SDS011;50274;45.640;11.756;2023-02-11T00:38:45;45.70;;;21.90;;
63016;SDS011;50274;45.640;11.756;2023-02-11T00:41:12;40.83;;;22.88;;
63016;SDS011;50274;45.640;11.756;2023-02-11T00:43:39;43.42;;;23.25;;
63016;SDS011;50274;45.640;11.756;2023-02-11T00:46:05;42.33;;;23.48;;
63016;SDS011;50274;45.640;11.756;2023-02-11T00:48:31;41.67;;;23.83;;
63016;SDS011;50274;45.640;11.756;2023-02-11T00:50:58;46.75;;;24.77;;
63016;SDS011;50274;45.640;11.756;2023-02-11T00:53:24;45.08;;;24.17;;
63016;SDS011;50274;45.640;11.756;2023-02-11T00:55:50;45.33;;;24.70;;
63016;SDS011;50274;45.640;11.756;2023-02-11T00:58:16;48.50;;;23.40;;
63016;SDS011;50274;45.640;11.756;2023-02-11T01:00:42;43.88;;;22.67;;
63016;SDS011;50274;45.640;11.756;2023-02-11T01:03:08;42.72;;;21.52;;
63016;SDS011;50274;45.640;11.756;2023-02-11T01:08:18;40.55;;;22.17;;
63016;SDS011;50274;45.640;11.756;2023-02-11T01:10:44;39.55;;;21.20;;
63016;SDS011;50274;45.640;11.756;2023-02-11T01:13:18;42.47;;;21.75;;
63016;SDS011;50274;45.640;11.756;2023-02-11T01:15:44;35.43;;;19.67;;
63016;SDS011;50274;45.640;11.756;2023-02-11T01:20:55;46.63;;;22.17;;
63016;SDS011;50274;45.640;11.756;2023-02-11T01:23:20;48.40;;;23.83;;
63016;SDS011;50274;45.640;11.756;2023-02-11T01:25:46;43.35;;;21.80;;
63016;SDS011;50274;45.640;11.756;2023-02-11T01:28:19;41.00;;;21.30;;
63016;SDS011;50274;45.640;11.756;2023-02-11T01:30:46;35.90;;;20.00;;
63016;SDS011;50274;45.640;11.756;2023-02-11T01:33:12;41.28;;;21.63;;
63016;SDS011;50274;45.640;11.756;2023-02-11T01:35:38;50.40;;;24.90;;
63016;SDS011;50274;45.640;11.756;2023-02-11T01:38:05;43.33;;;23.40;;
63016;SDS011;50274;45.640;11.756;2023-02-11T01:40:31;43.23;;;22.10;;
63016;SDS011;50274;45.640;11.756;2023-02-11T01:42:57;42.95;;;21.92;;
63016;SDS011;50274;45.640;11.756;2023-02-11T01:48:12;44.95;;;21.75;;
63016;SDS011;50274;45.640;11.756;2023-02-11T01:50:44;40.67;;;21.20;;
63016;SDS011;50274;45.640;11.756;2023-02-11T01:53:13;38.80;;;20.30;;
63016;SDS011;50274;45.640;11.756;2023-02-11T01:55:58;38.13;;;21.10;;
63016;SDS011;50274;45.640;11.756;2023-02-11T01:58:43;44.88;;;21.73;;
63016;SDS011;50274;45.640;11.756;2023-02-11T02:01:12;38.93;;;20.97;;
63016;SDS011;50274;45.640;11.756;2023-02-11T02:03:42;42.63;;;19.52;;
63016;SDS011;50274;45.640;11.756;2023-02-11T02:06:18;40.08;;;19.40;;
63016;SDS011;50274;45.640;11.756;2023-02-11T02:08:55;38.30;;;19.95;;
63016;SDS011;50274;45.640;11.756;2023-02-11T02:11:26;35.20;;;18.88;;
63016;SDS011;50274;45.640;11.756;2023-02-11T02:13:52;34.20;;;18.63;;
63016;SDS011;50274;45.640;11.756;2023-02-11T02:16:28;36.50;;;19.50;;
63016;SDS011;50274;45.640;11.756;2023-02-11T02:24:42;39.65;;;19.42;;
63016;SDS011;50274;45.640;11.756;2023-02-11T02:30:19;40.05;;;19.83;;
63016;SDS011;50274;45.640;11.756;2023-02-11T02:35:28;38.10;;;19.77;;
63016;SDS011;50274;45.640;11.756;2023-02-11T02:40:49;37.65;;;20.38;;
63016;SDS011;50274;45.640;11.756;2023-02-11T02:43:21;36.72;;;19.55;;
63016;SDS011;50274;45.640;11.756;2023-02-11T02:45:49;36.22;;;20.20;;
63016;SDS011;50274;45.640;11.756;2023-02-11T02:48:25;36.28;;;18.48;;
63016;SDS011;50274;45.640;11.756;2023-02-11T02:53:43;34.20;;;17.45;;
63016;SDS011;50274;45.640;11.756;2023-02-11T03:09:54;33.08;;;17.50;;
63016;SDS011;50274;45.640;11.756;2023-02-11T03:12:26;32.53;;;17.17;;
63016;SDS011;50274;45.640;11.756;2023-02-11T03:14:55;32.70;;;16.73;;
63016;SDS011;50274;45.640;11.756;2023-02-11T03:17:20;33.78;;;16.73;;
63016;SDS011;50274;45.640;11.756;2023-02-11T03:19:47;30.77;;;15.55;;
63016;SDS011;50274;45.640;11.756;2023-02-11T03:22:24;30.88;;;17.02;;
63016;SDS011;50274;45.640;11.756;2023-02-11T03:25:11;35.60;;;17.63;;
63016;SDS011;50274;45.640;11.756;2023-02-11T03:27:42;34.05;;;15.73;;
63016;SDS011;50274;45.640;11.756;2023-02-11T03:30:12;34.30;;;18.13;;
63016;SDS011;50274;45.640;11.756;2023-02-11T03:32:47;32.40;;;16.58;;
63016;SDS011;50274;45.640;11.756;2023-02-11T03:35:23;35.97;;;17.35;;
63016;SDS011;50274;45.640;11.756;2023-02-11T03:37:59;36.22;;;17.45;;
63016;SDS011;50274;45.640;11.756;2023-02-11T03:40:34;34.45;;;16.35;;
63016;SDS011;50274;45.640;11.756;2023-02-11T03:43:04;36.08;;;18.05;;
63016;SDS011;50274;45.640;11.756;2023-02-11T03:45:34;29.95;;;15.85;;
63016;SDS011;50274;45.640;11.756;2023-02-11T03:48:03;32.28;;;15.88;;
63016;SDS011;50274;45.640;11.756;2023-02-11T03:50:39;37.60;;;16.45;;
63016;SDS011;50274;45.640;11.756;2023-02-11T03:53:06;29.80;;;16.52;;
63016;SDS011;50274;45.640;11.756;2023-02-11T03:55:34;32.13;;;17.23;;
63016;SDS011;50274;45.640;11.756;2023-02-11T03:58:03;31.65;;;17.38;;
63016;SDS011;50274;45.640;11.756;2023-02-11T04:00:30;34.43;;;17.10;;
63016;SDS011;50274;45.640;11.756;2023-02-11T04:02:58;31.80;;;17.27;;
63016;SDS011;50274;45.640;11.756;2023-02-11T04:05:23;31.98;;;15.88;;
63016;SDS011;50274;45.640;11.756;2023-02-11T04:07:49;34.27;;;16.40;;
63016;SDS011;50274;45.640;11.756;2023-02-11T04:10:15;30.98;;;16.08;;
63016;SDS011;50274;45.640;11.756;2023-02-11T04:12:41;32.17;;;17.27;;
63016;SDS011;50274;45.640;11.756;2023-02-11T04:15:07;36.70;;;16.23;;
63016;SDS011;50274;45.640;11.756;2023-02-11T04:17:33;32.47;;;16.77;;
63016;SDS011;50274;45.640;11.756;2023-02-11T04:19:59;30.55;;;15.30;;
63016;SDS011;50274;45.640;11.756;2023-02-11T04:22:25;32.63;;;16.53;;
63016;SDS011;50274;45.640;11.756;2023-02-11T04:24:51;35.58;;;17.67;;
63016;SDS011;50274;45.640;11.756;2023-02-11T04:27:16;32.15;;;15.43;;
63016;SDS011;50274;45.640;11.756;2023-02-11T04:29:42;33.63;;;16.57;;
63016;SDS011;50274;45.640;11.756;2023-02-11T04:32:09;31.15;;;15.60;;
63016;SDS011;50274;45.640;11.756;2023-02-11T04:34:35;31.27;;;15.52;;
63016;SDS011;50274;45.640;11.756;2023-02-11T04:37:02;27.97;;;14.70;;
63016;SDS011;50274;45.640;11.756;2023-02-11T04:39:27;34.03;;;15.25;;
63016;SDS011;50274;45.640;11.756;2023-02-11T04:41:53;30.42;;;14.30;;
63016;SDS011;50274;45.640;11.756;2023-02-11T04:44:19;29.57;;;15.37;;
63016;SDS011;50274;45.640;11.756;2023-02-11T04:46:45;27.65;;;14.07;;
63016;SDS011;50274;45.640;11.756;2023-02-11T04:49:12;27.63;;;14.75;;
63016;SDS011;50274;45.640;11.756;2023-02-11T04:51:38;27.73;;;14.10;;
63016;SDS011;50274;45.640;11.756;2023-02-11T04:54:04;26.58;;;13.63;;
63016;SDS011;50274;45.640;11.756;2023-02-11T04:56:30;26.65;;;13.52;;
63016;SDS011;50274;45.640;11.756;2023-02-11T04:58:56;25.08;;;13.02;;
63016;SDS011;50274;45.640;11.756;2023-02-11T05:01:22;31.25;;;14.30;;
63016;SDS011;50274;45.640;11.756;2023-02-11T05:03:48;28.52;;;13.88;;
63016;SDS011;50274;45.640;11.756;2023-02-11T05:06:14;26.27;;;14.05;;
63016;SDS011;50274;45.640;11.756;2023-02-11T05:08:40;24.05;;;12.93;;
63016;SDS011;50274;45.640;11.756;2023-02-11T05:11:06;23.73;;;12.63;;
63016;SDS011;50274;45.640;11.756;2023-02-11T05:13:32;29.53;;;14.03;;
63016;SDS011;50274;45.640;11.756;2023-02-11T05:15:58;26.40;;;13.13;;
63016;SDS011;50274;45.640;11.756;2023-02-11T05:18:24;25.48;;;12.73;;
63016;SDS011;50274;45.640;11.756;2023-02-11T05:20:50;24.70;;;12.73;;
63016;SDS011;50274;45.640;11.756;2023-02-11T05:23:16;25.33;;;13.45;;
63016;SDS011;50274;45.640;11.756;2023-02-11T05:25:41;27.73;;;12.43;;
63016;SDS011;50274;45.640;11.756;2023-02-11T05:28:07;28.92;;;12.63;;
63016;SDS011;50274;45.640;11.756;2023-02-11T05:30:33;27.95;;;13.68;;
63016;SDS011;50274;45.640;11.756;2023-02-11T05:32:59;34.77;;;16.60;;
63016;SDS011;50274;45.640;11.756;2023-02-11T05:35:24;30.98;;;14.25;;
63016;SDS011;50274;45.640;11.756;2023-02-11T05:37:50;29.33;;;14.45;;
63016;SDS011;50274;45.640;11.756;2023-02-11T05:40:16;32.30;;;15.25;;
63016;SDS011;50274;45.640;11.756;2023-02-11T05:42:42;35.45;;;16.40;;
63016;SDS011;50274;45.640;11.756;2023-02-11T05:45:08;34.93;;;17.07;;
63016;SDS011;50274;45.640;11.756;2023-02-11T05:47:34;34.80;;;16.45;;
63016;SDS011;50274;45.640;11.756;2023-02-11T05:49:59;30.75;;;14.90;;
63016;SDS011;50274;45.640;11.756;2023-02-11T05:52:25;35.43;;;16.57;;
63016;SDS011;50274;45.640;11.756;2023-02-11T05:54:51;30.58;;;16.45;;
63016;SDS011;50274;45.640;11.756;2023-02-11T05:57:17;31.03;;;16.37;;
63016;SDS011;50274;45.640;11.756;2023-02-11T05:59:43;36.17;;;17.75;;
63016;SDS011;50274;45.640;11.756;2023-02-11T06:02:09;30.87;;;16.80;;
63016;SDS011;50274;45.640;11.756;2023-02-11T06:04:35;38.08;;;17.55;;
63016;SDS011;50274;45.640;11.756;2023-02-11T06:07:02;39.03;;;18.63;;
63016;SDS011;50274;45.640;11.756;2023-02-11T06:09:27;34.90;;;16.23;;
63016;SDS011;50274;45.640;11.756;2023-02-11T06:11:53;34.63;;;17.57;;
63016;SDS011;50274;45.640;11.756;2023-02-11T06:14:19;31.60;;;15.93;;
63016;SDS011;50274;45.640;11.756;2023-02-11T06:16:45;31.27;;;15.70;;
63016;SDS011;50274;45.640;11.756;2023-02-11T06:19:11;28.40;;;14.57;;
63016;SDS011;50274;45.640;11.756;2023-02-11T06:21:37;27.63;;;15.70;;
63016;SDS011;50274;45.640;11.756;2023-02-11T06:24:04;34.03;;;16.50;;
63016;SDS011;50274;45.640;11.756;2023-02-11T06:26:30;32.97;;;17.35;;
63016;SDS011;50274;45.640;11.756;2023-02-11T06:28:58;31.93;;;16.90;;
63016;SDS011;50274;45.640;11.756;2023-02-11T06:31:25;29.13;;;16.75;;
63016;SDS011;50274;45.640;11.756;2023-02-11T06:33:51;38.58;;;18.58;;
63016;SDS011;50274;45.640;11.756;2023-02-11T06:36:19;36.17;;;17.77;;
63016;SDS011;50274;45.640;11.756;2023-02-11T06:38:46;33.28;;;16.90;;
63016;SDS011;50274;45.640;11.756;2023-02-11T06:41:13;34.63;;;17.37;;
63016;SDS011;50274;45.640;11.756;2023-02-11T06:43:41;28.50;;;16.13;;
63016;SDS011;50274;45.640;11.756;2023-02-11T06:46:07;33.75;;;16.10;;
63016;SDS011;50274;45.640;11.756;2023-02-11T06:48:33;31.10;;;16.73;;
63016;SDS011;50274;45.640;11.756;2023-02-11T06:51:03;27.58;;;15.07;;
63016;SDS011;50274;45.640;11.756;2023-02-11T06:53:31;29.53;;;15.53;;
63016;SDS011;50274;45.640;11.756;2023-02-11T06:56:06;33.55;;;17.13;;
63016;SDS011;50274;45.640;11.756;2023-02-11T06:58:35;31.15;;;16.08;;
63016;SDS011;50274;45.640;11.756;2023-02-11T07:01:09;35.15;;;17.90;;
63016;SDS011;50274;45.640;11.756;2023-02-11T07:03:37;29.83;;;15.18;;
63016;SDS011;50274;45.640;11.756;2023-02-11T07:06:05;30.43;;;15.60;;
63016;SDS011;50274;45.640;11.756;2023-02-11T07:08:35;37.78;;;18.90;;
63016;SDS011;50274;45.640;11.756;2023-02-11T07:11:11;34.20;;;17.27;;
63016;SDS011;50274;45.640;11.756;2023-02-11T07:13:39;31.38;;;15.40;;
63016;SDS011;50274;45.640;11.756;2023-02-11T07:16:05;29.70;;;15.93;;
63016;SDS011;50274;45.640;11.756;2023-02-11T07:18:33;31.48;;;15.23;;
63016;SDS011;50274;45.640;11.756;2023-02-11T07:20:59;31.05;;;16.40;;
63016;SDS011;50274;45.640;11.756;2023-02-11T07:23:29;30.58;;;14.48;;
63016;SDS011;50274;45.640;11.756;2023-02-11T07:25:55;37.63;;;18.33;;
63016;SDS011;50274;45.640;11.756;2023-02-11T07:28:20;36.20;;;19.58;;
63016;SDS011;50274;45.640;11.756;2023-02-11T07:30:46;34.30;;;18.40;;
63016;SDS011;50274;45.640;11.756;2023-02-11T07:33:12;32.37;;;16.00;;
63016;SDS011;50274;45.640;11.756;2023-02-11T07:35:38;40.75;;;18.88;;
63016;SDS011;50274;45.640;11.756;2023-02-11T07:38:04;38.23;;;16.93;;
63016;SDS011;50274;45.640;11.756;2023-02-11T07:40:29;31.25;;;16.58;;
63016;SDS011;50274;45.640;11.756;2023-02-11T07:42:55;32.33;;;16.50;;
63016;SDS011;50274;45.640;11.756;2023-02-11T07:45:21;35.13;;;17.20;;
63016;SDS011;50274;45.640;11.756;2023-02-11T07:47:49;29.15;;;16.65;;
63016;SDS011;50274;45.640;11.756;2023-02-11T07:50:15;37.05;;;18.10;;
63016;SDS011;50274;45.640;11.756;2023-02-11T07:52:41;41.95;;;20.15;;
63016;SDS011;50274;45.640;11.756;2023-02-11T07:55:07;36.97;;;19.80;;
63016;SDS011;50274;45.640;11.756;2023-02-11T07:57:34;38.70;;;19.08;;
63016;SDS011;50274;45.640;11.756;2023-02-11T08:00:02;31.45;;;16.75;;
63016;SDS011;50274;45.640;11.756;2023-02-11T08:02:29;31.63;;;16.17;;
63016;SDS011;50274;45.640;11.756;2023-02-11T08:04:55;29.23;;;15.07;;
63016;SDS011;50274;45.640;11.756;2023-02-11T08:07:21;26.85;;;14.88;;
63016;SDS011;50274;45.640;11.756;2023-02-11T08:09:47;28.50;;;15.30;;
63016;SDS011;50274;45.640;11.756;2023-02-11T08:12:12;27.55;;;14.07;;
63016;SDS011;50274;45.640;11.756;2023-02-11T08:14:38;26.88;;;15.20;;
63016;SDS011;50274;45.640;11.756;2023-02-11T08:17:04;28.83;;;15.30;;
63016;SDS011;50274;45.640;11.756;2023-02-11T08:19:30;27.70;;;14.90;;
63016;SDS011;50274;45.640;11.756;2023-02-11T08:21:56;24.87;;;13.30;;
63016;SDS011;50274;45.640;11.756;2023-02-11T08:24:22;27.73;;;14.25;;
63016;SDS011;50274;45.640;11.756;2023-02-11T08:26:48;28.20;;;14.48;;
63016;SDS011;50274;45.640;11.756;2023-02-11T08:29:14;30.03;;;15.43;;
63016;SDS011;50274;45.640;11.756;2023-02-11T08:31:41;26.65;;;14.63;;
63016;SDS011;50274;45.640;11.756;2023-02-11T08:34:09;29.35;;;14.35;;
63016;SDS011;50274;45.640;11.756;2023-02-11T08:36:38;29.08;;;14.48;;
63016;SDS011;50274;45.640;11.756;2023-02-11T08:39:07;27.80;;;12.63;;
63016;SDS011;50274;45.640;11.756;2023-02-11T08:41:37;23.05;;;12.93;;
63016;SDS011;50274;45.640;11.756;2023-02-11T08:44:02;26.08;;;13.60;;
63016;SDS011;50274;45.640;11.756;2023-02-11T08:46:28;26.70;;;13.55;;
63016;SDS011;50274;45.640;11.756;2023-02-11T08:48:55;27.40;;;14.97;;
63016;SDS011;50274;45.640;11.756;2023-02-11T08:51:22;30.30;;;16.38;;
63016;SDS011;50274;45.640;11.756;2023-02-11T08:53:53;30.73;;;16.80;;
63016;SDS011;50274;45.640;11.756;2023-02-11T08:56:19;29.70;;;16.13;;
63016;SDS011;50274;45.640;11.756;2023-02-11T08:58:47;30.35;;;15.10;;
63016;SDS011;50274;45.640;11.756;2023-02-11T09:01:18;29.93;;;15.80;;
63016;SDS011;50274;45.640;11.756;2023-02-11T09:03:46;27.10;;;14.77;;
63016;SDS011;50274;45.640;11.756;2023-02-11T09:06:12;25.50;;;13.77;;
63016;SDS011;50274;45.640;11.756;2023-02-11T09:08:40;27.13;;;14.70;;
63016;SDS011;50274;45.640;11.756;2023-02-11T09:11:07;28.60;;;14.00;;
63016;SDS011;50274;45.640;11.756;2023-02-11T09:13:33;26.10;;;14.82;;
63016;SDS011;50274;45.640;11.756;2023-02-11T09:16:00;24.75;;;12.77;;
63016;SDS011;50274;45.640;11.756;2023-02-11T09:18:27;26.23;;;13.30;;
63016;SDS011;50274;45.640;11.756;2023-02-11T09:21:00;24.00;;;12.88;;
63016;SDS011;50274;45.640;11.756;2023-02-11T09:23:30;24.70;;;13.93;;
63016;SDS011;50274;45.640;11.756;2023-02-11T09:25:59;27.92;;;14.00;;
63016;SDS011;50274;45.640;11.756;2023-02-11T09:28:30;25.90;;;13.57;;
63016;SDS011;50274;45.640;11.756;2023-02-11T09:30:55;29.92;;;14.68;;
63016;SDS011;50274;45.640;11.756;2023-02-11T09:33:21;25.03;;;14.73;;
63016;SDS011;50274;45.640;11.756;2023-02-11T09:35:47;28.88;;;14.55;;
63016;SDS011;50274;45.640;11.756;2023-02-11T09:38:13;24.02;;;13.55;;
63016;SDS011;50274;45.640;11.756;2023-02-11T09:40:42;27.27;;;14.67;;
63016;SDS011;50274;45.640;11.756;2023-02-11T09:43:16;24.52;;;14.73;;
63016;SDS011;50274;45.640;11.756;2023-02-11T09:45:45;24.90;;;14.05;;
63016;SDS011;50274;45.640;11.756;2023-02-11T09:48:19;23.65;;;13.23;;
63016;SDS011;50274;45.640;11.756;2023-02-11T09:50:48;23.27;;;11.77;;
63016;SDS011;50274;45.640;11.756;2023-02-11T09:53:26;23.13;;;13.55;;
63016;SDS011;50274;45.640;11.756;2023-02-11T09:55:58;21.88;;;12.20;;
63016;SDS011;50274;45.640;11.756;2023-02-11T09:58:26;23.88;;;11.95;;
63016;SDS011;50274;45.640;11.756;2023-02-11T10:01:02;21.35;;;11.45;;
63016;SDS011;50274;45.640;11.756;2023-02-11T10:04:24;19.57;;;11.10;;
63016;SDS011;50274;45.640;11.756;2023-02-11T10:07:28;20.00;;;10.60;;
63016;SDS011;50274;45.640;11.756;2023-02-11T10:10:10;19.65;;;10.77;;
63016;SDS011;50274;45.640;11.756;2023-02-11T10:18:19;24.47;;;12.10;;
63016;SDS011;50274;45.640;11.756;2023-02-11T10:21:14;20.15;;;11.27;;
63016;SDS011;50274;45.640;11.756;2023-02-11T10:23:53;21.63;;;11.65;;
63016;SDS011;50274;45.640;11.756;2023-02-11T10:26:25;20.92;;;11.23;;
63016;SDS011;50274;45.640;11.756;2023-02-11T10:28:55;23.25;;;11.65;;
63016;SDS011;50274;45.640;11.756;2023-02-11T10:31:27;21.03;;;11.23;;
63016;SDS011;50274;45.640;11.756;2023-02-11T10:34:11;21.80;;;11.70;;
63016;SDS011;50274;45.640;11.756;2023-02-11T10:36:40;21.80;;;11.82;;
63016;SDS011;50274;45.640;11.756;2023-02-11T10:39:12;21.08;;;11.35;;
63016;SDS011;50274;45.640;11.756;2023-02-11T10:41:51;22.58;;;12.98;;
63016;SDS011;50274;45.640;11.756;2023-02-11T10:44:26;25.07;;;12.80;;
63016;SDS011;50274;45.640;11.756;2023-02-11T10:47:01;20.60;;;13.02;;
63016;SDS011;50274;45.640;11.756;2023-02-11T10:49:42;22.55;;;13.10;;
63016;SDS011;50274;45.640;11.756;2023-02-11T10:52:13;23.35;;;14.20;;
63016;SDS011;50274;45.640;11.756;2023-02-11T10:54:39;27.13;;;15.27;;
63016;SDS011;50274;45.640;11.756;2023-02-11T10:57:19;32.10;;;15.73;;
63016;SDS011;50274;45.640;11.756;2023-02-11T10:59:45;29.17;;;15.93;;
63016;SDS011;50274;45.640;11.756;2023-02-11T11:02:27;31.50;;;16.42;;
63016;SDS011;50274;45.640;11.756;2023-02-11T11:04:58;33.63;;;17.83;;
63016;SDS011;50274;45.640;11.756;2023-02-11T11:07:57;41.40;;;21.38;;
63016;SDS011;50274;45.640;11.756;2023-02-11T11:10:34;45.63;;;23.17;;
63016;SDS011;50274;45.640;11.756;2023-02-11T11:13:31;45.47;;;23.55;;
63016;SDS011;50274;45.640;11.756;2023-02-11T11:16:14;51.00;;;27.20;;
63016;SDS011;50274;45.640;11.756;2023-02-11T11:18:52;48.28;;;24.73;;
63016;SDS011;50274;45.640;11.756;2023-02-11T11:21:34;41.28;;;21.67;;
63016;SDS011;50274;45.640;11.756;2023-02-11T11:27:18;38.08;;;18.73;;
63016;SDS011;50274;45.640;11.756;2023-02-11T11:29:49;32.72;;;17.42;;
63016;SDS011;50274;45.640;11.756;2023-02-11T11:35:06;31.40;;;17.40;;
63016;SDS011;50274;45.640;11.756;2023-02-11T11:37:54;27.60;;;15.97;;
63016;SDS011;50274;45.640;11.756;2023-02-11T11:40:34;30.58;;;16.40;;
63016;SDS011;50274;45.640;11.756;2023-02-11T11:43:08;29.52;;;17.50;;
63016;SDS011;50274;45.640;11.756;2023-02-11T11:45:54;29.17;;;16.75;;
63016;SDS011;50274;45.640;11.756;2023-02-11T11:48:36;31.65;;;19.50;;
63016;SDS011;50274;45.640;11.756;2023-02-11T11:51:04;29.83;;;18.23;;
63016;SDS011;50274;45.640;11.756;2023-02-11T11:56:24;31.20;;;18.00;;
63016;SDS011;50274;45.640;11.756;2023-02-11T11:58:52;29.75;;;17.83;;
63016;SDS011;50274;45.640;11.756;2023-02-11T12:04:22;31.07;;;18.00;;
63016;SDS011;50274;45.640;11.756;2023-02-11T12:26:48;19.38;;;11.77;;
63016;SDS011;50274;45.640;11.756;2023-02-11T12:35:24;21.80;;;12.93;;
63016;SDS011;50274;45.640;11.756;2023-02-11T12:43:18;18.95;;;11.50;;
63016;SDS011;50274;45.640;11.756;2023-02-11T12:57:13;19.05;;;10.68;;
63016;SDS011;50274;45.640;11.756;2023-02-11T13:05:48;16.80;;;10.07;;
63016;SDS011;50274;45.640;11.756;2023-02-11T13:10:56;16.17;;;9.27;;
63016;SDS011;50274;45.640;11.756;2023-02-11T13:13:30;19.67;;;10.70;;
63016;SDS011;50274;45.640;11.756;2023-02-11T13:16:05;17.33;;;11.05;;
63016;SDS011;50274;45.640;11.756;2023-02-11T13:21:18;18.40;;;10.50;;
63016;SDS011;50274;45.640;11.756;2023-02-11T13:32:08;24.25;;;15.13;;
63016;SDS011;50274;45.640;11.756;2023-02-11T13:37:05;18.10;;;11.60;;
63016;SDS011;50274;45.640;11.756;2023-02-11T13:40:04;18.50;;;11.20;;
63016;SDS011;50274;45.640;11.756;2023-02-11T13:42:52;21.42;;;13.15;;
63016;SDS011;50274;45.640;11.756;2023-02-11T13:48:04;20.58;;;12.57;;
63016;SDS011;50274;45.640;11.756;2023-02-11T13:50:37;19.27;;;12.02;;
63016;SDS011;50274;45.640;11.756;2023-02-11T13:53:04;20.27;;;12.23;;
63016;SDS011;50274;45.640;11.756;2023-02-11T13:55:34;20.48;;;12.00;;
63016;SDS011;50274;45.640;11.756;2023-02-11T13:58:46;17.52;;;12.10;;
63016;SDS011;50274;45.640;11.756;2023-02-11T14:00:51;19.23;;;13.15;;
63016;SDS011;50274;45.640;11.756;2023-02-11T14:06:11;22.00;;;14.50;;
63016;SDS011;50274;45.640;11.756;2023-02-11T14:09:09;24.40;;;15.05;;
63016;SDS011;50274;45.640;11.756;2023-02-11T14:12:19;24.05;;;15.40;;
63016;SDS011;50274;45.640;11.756;2023-02-11T14:17:44;25.63;;;15.50;;
63016;SDS011;50274;45.640;11.756;2023-02-11T14:23:03;26.88;;;14.27;;
63016;SDS011;50274;45.640;11.756;2023-02-11T14:25:30;22.23;;;13.93;;
63016;SDS011;50274;45.640;11.756;2023-02-11T14:27:57;24.08;;;13.77;;
63016;SDS011;50274;45.640;11.756;2023-02-11T14:41:51;23.80;;;14.60;;
63016;SDS011;50274;45.640;11.756;2023-02-11T14:44:22;26.13;;;16.00;;
63016;SDS011;50274;45.640;11.756;2023-02-11T14:46:51;23.95;;;13.75;;
63016;SDS011;50274;45.640;11.756;2023-02-11T14:52:40;25.27;;;15.73;;
63016;SDS011;50274;45.640;11.756;2023-02-11T14:55:12;28.17;;;15.63;;
63016;SDS011;50274;45.640;11.756;2023-02-11T14:58:16;24.17;;;16.03;;
63016;SDS011;50274;45.640;11.756;2023-02-11T15:06:25;23.83;;;15.70;;
63016;SDS011;50274;45.640;11.756;2023-02-11T15:08:55;27.25;;;15.35;;
63016;SDS011;50274;45.640;11.756;2023-02-11T15:11:25;27.73;;;17.43;;
63016;SDS011;50274;45.640;11.756;2023-02-11T15:13:52;23.35;;;15.10;;
63016;SDS011;50274;45.640;11.756;2023-02-11T15:16:21;26.02;;;15.18;;
63016;SDS011;50274;45.640;11.756;2023-02-11T15:18:49;27.17;;;16.88;;
63016;SDS011;50274;45.640;11.756;2023-02-11T15:21:21;25.38;;;16.52;;
63016;SDS011;50274;45.640;11.756;2023-02-11T15:26:31;30.52;;;17.33;;
63016;SDS011;50274;45.640;11.756;2023-02-11T15:28:57;28.92;;;17.60;;
63016;SDS011;50274;45.640;11.756;2023-02-11T15:31:24;30.00;;;18.27;;
63016;SDS011;50274;45.640;11.756;2023-02-11T15:33:52;32.92;;;19.98;;
63016;SDS011;50274;45.640;11.756;2023-02-11T15:36:21;34.40;;;18.37;;
63016;SDS011;50274;45.640;11.756;2023-02-11T15:41:53;35.72;;;19.02;;
63016;SDS011;50274;45.640;11.756;2023-02-11T15:44:29;34.35;;;18.88;;
63016;SDS011;50274;45.640;11.756;2023-02-11T15:46:56;32.10;;;19.57;;
63016;SDS011;50274;45.640;11.756;2023-02-11T15:49:23;33.90;;;20.00;;
63016;SDS011;50274;45.640;11.756;2023-02-11T15:51:50;36.47;;;21.17;;
63016;SDS011;50274;45.640;11.756;2023-02-11T15:54:25;35.20;;;20.35;;
63016;SDS011;50274;45.640;11.756;2023-02-11T15:56:57;44.15;;;23.73;;
63016;SDS011;50274;45.640;11.756;2023-02-11T15:59:27;38.33;;;22.33;;
63016;SDS011;50274;45.640;11.756;2023-02-11T16:04:33;38.22;;;21.58;;
63016;SDS011;50274;45.640;11.756;2023-02-11T16:07:01;36.47;;;22.20;;
63016;SDS011;50274;45.640;11.756;2023-02-11T16:09:34;37.40;;;20.27;;
63016;SDS011;50274;45.640;11.756;2023-02-11T16:12:16;31.97;;;19.07;;
63016;SDS011;50274;45.640;11.756;2023-02-11T16:14:48;35.15;;;20.92;;
63016;SDS011;50274;45.640;11.756;2023-02-11T16:17:21;35.88;;;21.73;;
63016;SDS011;50274;45.640;11.756;2023-02-11T16:19:50;42.28;;;24.08;;
63016;SDS011;50274;45.640;11.756;2023-02-11T16:22:25;37.43;;;22.90;;
63016;SDS011;50274;45.640;11.756;2023-02-11T16:24:56;41.70;;;24.75;;
63016;SDS011;50274;45.640;11.756;2023-02-11T16:30:06;41.80;;;23.70;;
63016;SDS011;50274;45.640;11.756;2023-02-11T16:32:46;41.92;;;24.77;;
63016;SDS011;50274;45.640;11.756;2023-02-11T16:35:11;37.57;;;21.10;;
63016;SDS011;50274;45.640;11.756;2023-02-11T16:37:38;36.28;;;20.63;;
63016;SDS011;50274;45.640;11.756;2023-02-11T16:40:09;35.78;;;21.30;;
63016;SDS011;50274;45.640;11.756;2023-02-11T16:42:38;30.15;;;18.23;;
63016;SDS011;50274;45.640;11.756;2023-02-11T16:45:07;31.73;;;18.07;;
63016;SDS011;50274;45.640;11.756;2023-02-11T16:47:36;32.50;;;18.98;;
63016;SDS011;50274;45.640;11.756;2023-02-11T16:50:08;29.52;;;18.55;;
63016;SDS011;50274;45.640;11.756;2023-02-11T16:52:36;32.47;;;20.13;;
63016;SDS011;50274;45.640;11.756;2023-02-11T16:55:03;33.25;;;20.27;;
63016;SDS011;50274;45.640;11.756;2023-02-11T16:57:32;33.47;;;19.87;;
63016;SDS011;50274;45.640;11.756;2023-02-11T16:59:58;36.08;;;19.55;;
63016;SDS011;50274;45.640;11.756;2023-02-11T17:02:25;31.50;;;18.40;;
63016;SDS011;50274;45.640;11.756;2023-02-11T17:04:57;34.80;;;20.25;;
63016;SDS011;50274;45.640;11.756;2023-02-11T17:07:24;32.47;;;19.20;;
63016;SDS011;50274;45.640;11.756;2023-02-11T17:09:51;34.83;;;19.77;;